createdAt,value
2022-11-08T00:00:11.763Z,0
2022-11-08T00:01:09.900Z,0
2022-11-08T00:02:10.880Z,0
2022-11-08T00:03:10.264Z,0
2022-11-08T00:04:10.160Z,0
2022-11-08T00:05:10.443Z,0
2022-11-08T00:06:10.407Z,0
2022-11-08T00:07:10.249Z,0
2022-11-08T00:08:10.063Z,0
2022-11-08T00:09:10.724Z,0
2022-11-08T00:10:10.855Z,0
2022-11-08T00:11:10.686Z,0
2022-11-08T00:12:10.585Z,0
2022-11-08T00:13:10.335Z,0
2022-11-08T00:14:10.184Z,0
2022-11-08T00:15:10.269Z,0
2022-11-08T00:16:09.918Z,0
2022-11-08T00:17:11.029Z,0
2022-11-08T00:18:10.231Z,0
2022-11-08T00:19:10.899Z,0
2022-11-08T00:20:11.026Z,0
2022-11-08T00:21:11.032Z,0
2022-11-08T00:22:10.258Z,0
2022-11-08T00:23:10.744Z,0
2022-11-08T00:24:10.996Z,0
2022-11-08T00:25:10.870Z,0
2022-11-08T00:26:11.094Z,0
2022-11-08T00:27:10.174Z,0
2022-11-08T00:28:10.083Z,0
2022-11-08T00:29:10.630Z,0
2022-11-08T00:30:10.549Z,0
2022-11-08T00:31:10.514Z,0
2022-11-08T00:32:10.514Z,0
2022-11-08T00:33:10.150Z,0.409
2022-11-08T00:34:09.810Z,0.860
2022-11-08T00:35:10.722Z,0.449
2022-11-08T00:36:10.584Z,0.790
2022-11-08T00:37:10.696Z,0.340
2022-11-08T00:38:10.299Z,0.560
2022-11-08T00:39:10.788Z,0.109
2022-11-08T00:40:10.756Z,0.219
2022-11-08T00:41:10.704Z,0.340
2022-11-08T00:42:10.261Z,0
2022-11-08T00:43:10.000Z,0.109
2022-11-08T00:44:10.639Z,0.219
2022-11-08T00:45:10.745Z,0.219
2022-11-08T00:46:10.546Z,0.109
2022-11-08T00:47:10.553Z,0
2022-11-08T00:48:10.143Z,0
2022-11-08T00:49:10.675Z,0
2022-11-08T00:50:10.543Z,0
2022-11-08T00:51:10.328Z,0
2022-11-08T00:52:10.061Z,0
2022-11-08T00:53:10.857Z,0
2022-11-08T00:54:10.595Z,0
2022-11-08T00:55:10.382Z,0
2022-11-08T00:56:09.985Z,0
2022-11-08T00:57:10.646Z,0.219
2022-11-08T00:58:10.622Z,0.109
2022-11-08T00:59:10.799Z,0.340
2022-11-08T01:00:11.035Z,0.219
2022-11-08T01:01:11.846Z,0.340
2022-11-08T01:02:10.882Z,0.449
2022-11-08T01:03:10.755Z,0
2022-11-08T01:04:10.369Z,0
2022-11-08T01:05:10.354Z,0.109
2022-11-08T01:06:10.357Z,0.109
2022-11-08T01:07:10.161Z,0
2022-11-08T01:08:10.186Z,0
2022-11-08T01:09:10.758Z,0
2022-11-08T01:10:10.279Z,0
2022-11-08T01:11:10.243Z,0
2022-11-08T01:12:10.113Z,0.449
2022-11-08T01:13:09.877Z,0.219
2022-11-08T01:14:10.741Z,0.109
2022-11-08T01:15:10.755Z,0.109
2022-11-08T01:16:10.648Z,0
2022-11-08T01:17:10.349Z,0
2022-11-08T01:18:10.237Z,0.109
2022-11-08T01:19:10.672Z,0
2022-11-08T01:20:10.503Z,0
2022-11-08T01:21:10.247Z,0
2022-11-08T01:22:09.963Z,0
2022-11-08T01:23:09.830Z,0
2022-11-08T01:24:10.651Z,0.109
2022-11-08T01:25:10.458Z,0
2022-11-08T01:26:10.032Z,0
2022-11-08T01:27:09.998Z,0
2022-11-08T01:28:11.068Z,0
2022-11-08T01:29:10.644Z,0
2022-11-08T01:30:10.568Z,0
2022-11-08T01:31:10.449Z,0
2022-11-08T01:32:10.174Z,0
2022-11-08T01:33:09.967Z,0.219
2022-11-08T01:34:10.863Z,0
2022-11-08T01:35:10.593Z,0
2022-11-08T01:36:10.539Z,0
2022-11-08T01:37:10.025Z,0.109
2022-11-08T01:38:10.780Z,0
2022-11-08T01:39:10.178Z,0
2022-11-08T01:40:09.772Z,0
2022-11-08T01:41:10.445Z,0
2022-11-08T01:42:10.417Z,0
2022-11-08T01:43:10.498Z,0
2022-11-08T01:44:10.137Z,0
2022-11-08T01:45:10.004Z,0
2022-11-08T01:46:10.813Z,0
2022-11-08T01:47:10.588Z,0
2022-11-08T01:48:10.160Z,0
2022-11-08T01:49:10.632Z,0
2022-11-08T01:50:10.086Z,0
2022-11-08T01:51:10.787Z,0
2022-11-08T01:52:10.305Z,0
2022-11-08T01:53:09.839Z,0
2022-11-08T01:54:10.654Z,0
2022-11-08T01:55:10.593Z,0
2022-11-08T01:56:10.599Z,13600
2022-11-08T01:57:10.549Z,0
2022-11-08T01:58:10.473Z,0
2022-11-08T01:59:09.749Z,0
2022-11-08T02:00:11.189Z,0
2022-11-08T02:01:10.531Z,13600
2022-11-08T02:02:10.794Z,13600
2022-11-08T02:03:11.154Z,0
2022-11-08T02:04:10.181Z,0
2022-11-08T02:05:10.381Z,13600
2022-11-08T02:06:10.056Z,13600
2022-11-08T02:07:10.070Z,0
2022-11-08T02:08:11.045Z,0
2022-11-08T02:09:10.100Z,0
2022-11-08T02:10:10.000Z,0
2022-11-08T02:11:09.910Z,0
2022-11-08T02:12:10.607Z,0
2022-11-08T02:13:14.432Z,0
2022-11-08T02:14:10.645Z,0
2022-11-08T02:15:10.889Z,0
2022-11-08T02:16:10.798Z,0
2022-11-08T02:17:10.686Z,0
2022-11-08T02:18:10.630Z,0
2022-11-08T02:19:09.990Z,0
2022-11-08T02:20:11.089Z,0
2022-11-08T02:21:10.586Z,0
2022-11-08T02:22:10.508Z,13600
2022-11-08T02:23:09.768Z,13600
2022-11-08T02:24:10.554Z,0
2022-11-08T02:25:10.663Z,13600
2022-11-08T02:26:10.337Z,13600
2022-11-08T02:27:10.126Z,13600
2022-11-08T02:28:09.906Z,13600
2022-11-08T02:29:10.093Z,0
2022-11-08T02:30:10.404Z,13600
2022-11-08T02:31:10.161Z,13600
2022-11-08T02:32:09.913Z,13600
2022-11-08T02:33:10.937Z,0
2022-11-08T02:34:10.571Z,0
2022-11-08T02:35:10.465Z,13600
2022-11-08T02:36:10.165Z,13600
2022-11-08T02:37:10.304Z,13600
2022-11-08T02:38:10.095Z,13600
2022-11-08T02:39:10.439Z,0
2022-11-08T02:40:10.281Z,0
2022-11-08T02:41:10.112Z,13600
2022-11-08T02:42:10.128Z,13600
2022-11-08T02:43:11.007Z,13600
2022-11-08T02:44:10.724Z,13600
2022-11-08T02:45:10.691Z,13600
2022-11-08T02:46:09.946Z,13600
2022-11-08T02:47:10.992Z,13600
2022-11-08T02:48:10.610Z,13600
2022-11-08T02:49:09.990Z,13600
2022-11-08T02:50:10.888Z,13600
2022-11-08T02:51:10.925Z,13600
2022-11-08T02:52:10.608Z,13600
2022-11-08T02:53:09.966Z,13600
2022-11-08T02:54:10.721Z,13600
2022-11-08T02:55:10.681Z,13600
2022-11-08T02:56:10.237Z,13600
2022-11-08T02:57:10.107Z,13600
2022-11-08T02:58:10.731Z,13600
2022-11-08T02:59:10.096Z,13600
2022-11-08T03:00:11.538Z,13600
2022-11-08T03:01:10.756Z,13600
2022-11-08T03:02:10.508Z,13600
2022-11-08T03:03:10.757Z,13600
2022-11-08T03:04:10.373Z,13600
2022-11-08T03:05:10.233Z,13600
2022-11-08T03:06:09.969Z,13600
2022-11-08T03:07:10.544Z,13600
2022-11-08T03:08:10.146Z,13600
2022-11-08T03:09:10.821Z,0
2022-11-08T03:10:10.497Z,13600
2022-11-08T03:11:10.260Z,0
2022-11-08T03:12:10.207Z,0
2022-11-08T03:13:10.936Z,0
2022-11-08T03:14:10.640Z,0
2022-11-08T03:15:10.389Z,0
2022-11-08T03:16:10.036Z,0
2022-11-08T03:17:10.702Z,0
2022-11-08T03:18:10.552Z,0
2022-11-08T03:19:10.831Z,0
2022-11-08T03:20:10.287Z,0
2022-11-08T03:21:10.191Z,0
2022-11-08T03:22:10.843Z,0
2022-11-08T03:23:10.379Z,0
2022-11-08T03:24:10.049Z,0
2022-11-08T03:25:10.850Z,0
2022-11-08T03:26:10.409Z,0
2022-11-08T03:27:10.153Z,0
2022-11-08T03:28:09.802Z,0
2022-11-08T03:29:10.898Z,0
2022-11-08T03:30:10.729Z,0
2022-11-08T03:31:10.471Z,0
2022-11-08T03:32:10.351Z,0
2022-11-08T03:33:09.794Z,0
2022-11-08T03:34:10.383Z,0
2022-11-08T03:35:09.936Z,0
2022-11-08T03:36:10.586Z,0
2022-11-08T03:37:10.042Z,0
2022-11-08T03:38:10.526Z,0.109
2022-11-08T03:39:10.125Z,0
2022-11-08T03:40:11.002Z,0
2022-11-08T03:41:10.838Z,0.109
2022-11-08T03:42:10.552Z,0
2022-11-08T03:43:10.053Z,0
2022-11-08T03:44:10.121Z,0
2022-11-08T03:45:11.022Z,0
2022-11-08T03:46:10.472Z,0
2022-11-08T03:47:10.166Z,0
2022-11-08T03:48:10.886Z,0
2022-11-08T03:49:10.166Z,0
2022-11-08T03:50:10.217Z,0
2022-11-08T03:51:10.216Z,0
2022-11-08T03:52:10.039Z,0
2022-11-08T03:53:10.765Z,0
2022-11-08T03:54:10.735Z,0
2022-11-08T03:55:10.237Z,0
2022-11-08T03:56:09.833Z,0
2022-11-08T03:57:10.660Z,0
2022-11-08T03:58:10.705Z,0
2022-11-08T03:59:10.114Z,0
2022-11-08T04:00:11.510Z,0
2022-11-08T04:01:10.478Z,0
2022-11-08T04:02:10.395Z,0
2022-11-08T04:03:10.450Z,0
2022-11-08T04:04:10.370Z,0
2022-11-08T04:05:10.118Z,0
2022-11-08T04:06:10.170Z,0
2022-11-08T04:07:10.250Z,0
2022-11-08T04:08:10.137Z,0
2022-11-08T04:09:10.698Z,0
2022-11-08T04:10:10.806Z,0
2022-11-08T04:11:10.847Z,0
2022-11-08T04:12:11.023Z,0
2022-11-08T04:13:11.081Z,0
2022-11-08T04:14:15.074Z,0
2022-11-08T04:15:11.389Z,0
2022-11-08T04:16:18.024Z,0
2022-11-08T04:17:11.066Z,0
2022-11-08T04:18:10.794Z,0.109
2022-11-08T04:19:10.369Z,0
2022-11-08T04:20:10.483Z,0
2022-11-08T04:21:10.637Z,0
2022-11-08T04:22:10.453Z,0
2022-11-08T04:23:10.464Z,0
2022-11-08T04:24:10.555Z,0
2022-11-08T04:25:10.669Z,0
2022-11-08T04:26:10.686Z,0
2022-11-08T04:27:10.694Z,0
2022-11-08T04:28:10.663Z,0
2022-11-08T04:29:10.959Z,0
2022-11-08T04:30:11.004Z,0
2022-11-08T04:31:10.928Z,0.119
2022-11-08T04:32:11.045Z,0
2022-11-08T04:33:11.031Z,0
2022-11-08T04:34:09.971Z,0
2022-11-08T04:35:10.778Z,0
2022-11-08T04:36:10.802Z,0
2022-11-08T04:37:10.978Z,0
2022-11-08T04:38:10.906Z,0
2022-11-08T04:39:10.245Z,0
2022-11-08T04:40:10.239Z,0
2022-11-08T04:41:10.136Z,0
2022-11-08T04:42:10.282Z,0
2022-11-08T04:43:10.294Z,0
2022-11-08T04:44:10.488Z,0
2022-11-08T04:45:10.682Z,0
2022-11-08T04:46:10.503Z,0
2022-11-08T04:47:10.128Z,0
2022-11-08T04:48:10.005Z,0
2022-11-08T04:49:10.344Z,0
2022-11-08T04:50:10.309Z,0
2022-11-08T04:51:10.300Z,0
2022-11-08T04:52:10.026Z,0
2022-11-08T04:53:11.056Z,0.109
2022-11-08T04:54:10.700Z,0
2022-11-08T04:55:10.523Z,0
2022-11-08T04:56:10.433Z,0
2022-11-08T04:57:10.285Z,0
2022-11-08T04:58:10.042Z,0
2022-11-08T04:59:12.023Z,0
2022-11-08T05:00:10.768Z,0.109
2022-11-08T05:01:10.433Z,0
2022-11-08T05:02:10.625Z,0
2022-11-08T05:03:11.047Z,0
2022-11-08T05:04:10.949Z,0
2022-11-08T05:05:11.103Z,0
2022-11-08T05:06:10.062Z,0
2022-11-08T05:07:09.970Z,0
2022-11-08T05:08:11.106Z,0
2022-11-08T05:09:10.494Z,0
2022-11-08T05:10:10.454Z,0
2022-11-08T05:11:10.661Z,0
2022-11-08T05:12:10.600Z,0
2022-11-08T05:13:10.349Z,0
2022-11-08T05:14:10.158Z,0
2022-11-08T05:15:10.755Z,0
2022-11-08T05:16:10.755Z,0
2022-11-08T05:17:10.752Z,0
2022-11-08T05:18:10.481Z,0
2022-11-08T05:19:13.190Z,0
2022-11-08T05:20:10.474Z,0
2022-11-08T05:21:10.339Z,0
2022-11-08T05:22:10.328Z,0
2022-11-08T05:23:10.492Z,0.109
2022-11-08T05:24:10.447Z,0
2022-11-08T05:25:10.699Z,0
2022-11-08T05:26:10.840Z,0
2022-11-08T05:27:10.712Z,0
2022-11-08T05:28:10.515Z,0
2022-11-08T05:29:10.310Z,0
2022-11-08T05:30:10.589Z,0
2022-11-08T05:31:10.504Z,0
2022-11-08T05:32:10.188Z,0
2022-11-08T05:33:10.261Z,0
2022-11-08T05:34:10.199Z,0
2022-11-08T05:35:10.401Z,0
2022-11-08T05:36:10.687Z,0
2022-11-08T05:37:10.814Z,0
2022-11-08T05:38:10.732Z,0
2022-11-08T05:39:10.075Z,0
2022-11-08T05:40:10.261Z,0
2022-11-08T05:41:10.180Z,13600
2022-11-08T05:42:10.410Z,13600
2022-11-08T05:43:10.264Z,13600
2022-11-08T05:45:10.870Z,13600
2022-11-08T05:47:10.145Z,0
2022-11-08T05:48:10.052Z,13600
2022-11-08T05:49:10.469Z,0
2022-11-08T05:50:12.371Z,13600
2022-11-08T05:51:09.867Z,13600
2022-11-08T05:52:10.787Z,13600
2022-11-08T05:53:10.746Z,13600
2022-11-08T05:54:10.239Z,13600
2022-11-08T05:55:10.262Z,0
2022-11-08T05:56:10.040Z,13600
2022-11-08T05:57:10.866Z,13600
2022-11-08T05:58:10.002Z,0
2022-11-08T05:59:10.754Z,0
2022-11-08T06:00:11.451Z,0.059
2022-11-08T06:01:10.760Z,0
2022-11-08T06:02:10.600Z,0.180
2022-11-08T06:03:10.830Z,0.340
2022-11-08T06:04:10.763Z,0
2022-11-08T06:05:10.577Z,0.449
2022-11-08T06:06:10.342Z,0.670
2022-11-08T06:07:10.641Z,1.009
2022-11-08T06:08:11.081Z,1.019
2022-11-08T06:09:10.665Z,1.720
2022-11-08T06:10:10.759Z,1.889
2022-11-08T06:11:11.078Z,2.470
2022-11-08T06:12:10.609Z,3.109
2022-11-08T06:13:10.604Z,3.809
2022-11-08T06:14:10.566Z,4.650
2022-11-08T06:15:10.826Z,6.079
2022-11-08T06:16:10.875Z,7.519
2022-11-08T06:17:10.834Z,9.310
2022-11-08T06:18:10.659Z,11.17
2022-11-08T06:19:10.528Z,13.11
2022-11-08T06:20:10.687Z,15.27
2022-11-08T06:21:10.667Z,17.89
2022-11-08T06:22:10.798Z,20.79
2022-11-08T06:23:10.043Z,24
2022-11-08T06:24:10.876Z,27.39
2022-11-08T06:25:10.372Z,32.09
2022-11-08T06:26:10.282Z,37.79
2022-11-08T06:27:10.352Z,45.40
2022-11-08T06:28:10.372Z,53.5
2022-11-08T06:29:10.424Z,62
2022-11-08T06:30:10.723Z,70.40
2022-11-08T06:31:10.734Z,77.19
2022-11-08T06:32:10.434Z,78.58
2022-11-08T06:33:10.754Z,78.76
2022-11-08T06:34:10.595Z,82.5
2022-11-08T06:35:10.496Z,89.30
2022-11-08T06:36:10.163Z,97.30
2022-11-08T06:37:10.127Z,107
2022-11-08T06:38:09.998Z,119
2022-11-08T06:39:10.114Z,133
2022-11-08T06:40:10.219Z,145
2022-11-08T06:41:10.053Z,156.6
2022-11-08T06:42:09.938Z,166.3
2022-11-08T06:43:14.973Z,175.5
2022-11-08T06:44:10.225Z,184
2022-11-08T06:45:10.798Z,198
2022-11-08T06:46:10.812Z,216
2022-11-08T06:47:10.728Z,239
2022-11-08T06:48:10.805Z,264
2022-11-08T06:49:11.134Z,286
2022-11-08T06:50:10.654Z,310
2022-11-08T06:51:11.301Z,334
2022-11-08T06:52:10.719Z,359
2022-11-08T06:53:11.325Z,380
2022-11-08T06:54:15.458Z,420
2022-11-08T06:55:11.229Z,460
2022-11-08T06:56:10.252Z,500
2022-11-08T06:57:10.232Z,529
2022-11-08T06:58:10.401Z,548
2022-11-08T06:59:10.328Z,569
2022-11-08T07:00:10.852Z,584
2022-11-08T07:01:24.631Z,597
2022-11-08T07:02:11.110Z,620
2022-11-08T07:03:10.670Z,660
2022-11-08T07:04:10.198Z,700
2022-11-08T07:05:10.377Z,760
2022-11-08T07:06:10.292Z,820
2022-11-08T07:07:10.737Z,880
2022-11-08T07:08:10.869Z,950
2022-11-08T07:09:11.190Z,1010
2022-11-08T07:10:09.916Z,1050
2022-11-08T07:11:11.007Z,1086
2022-11-08T07:12:10.205Z,1111
2022-11-08T07:13:10.873Z,1140
2022-11-08T07:14:10.880Z,1180
2022-11-08T07:15:29.245Z,1240
2022-11-08T07:16:10.564Z,1300
2022-11-08T07:17:10.872Z,1360
2022-11-08T07:18:10.267Z,1410
2022-11-08T07:19:10.325Z,1460
2022-11-08T07:20:10.509Z,1520
2022-11-08T07:21:10.446Z,1590
2022-11-08T07:22:10.561Z,1660
2022-11-08T07:23:10.517Z,1740
2022-11-08T07:24:10.868Z,1820
2022-11-08T07:25:10.898Z,1890
2022-11-08T07:26:10.063Z,1900
2022-11-08T07:27:10.535Z,2100
2022-11-08T07:28:12.140Z,2240
2022-11-08T07:29:14.766Z,2300
2022-11-08T07:30:11.086Z,2328
2022-11-08T07:31:10.307Z,2329
2022-11-08T07:32:10.202Z,2290
2022-11-08T07:33:10.612Z,2240
2022-11-08T07:34:10.444Z,2190
2022-11-08T07:35:11.046Z,2150
2022-11-08T07:36:10.337Z,2090
2022-11-08T07:37:10.487Z,2065
2022-11-08T07:38:10.434Z,2090
2022-11-08T07:39:10.689Z,2130
2022-11-08T07:40:11.060Z,2200
2022-11-08T07:41:10.055Z,2260
2022-11-08T07:42:11.259Z,2300
2022-11-08T07:43:12.600Z,2500
2022-11-08T07:44:10.033Z,2600
2022-11-08T07:45:10.283Z,2700
2022-11-08T07:46:10.466Z,2900
2022-11-08T07:47:10.236Z,3000
2022-11-08T07:48:12.427Z,3100
2022-11-08T07:49:10.971Z,3300
2022-11-08T07:50:11.000Z,3500
2022-11-08T07:51:10.258Z,3000
2022-11-08T07:52:10.268Z,4000
2022-11-08T07:53:10.301Z,0
2022-11-08T07:54:10.944Z,0
2022-11-08T07:55:11.290Z,3000
2022-11-08T07:56:10.543Z,0
2022-11-08T07:57:11.972Z,0
2022-11-08T07:58:10.166Z,6000
2022-11-08T07:59:10.460Z,0
2022-11-08T08:00:11.390Z,0
2022-11-08T08:01:10.879Z,0
2022-11-08T08:02:10.845Z,0
2022-11-08T08:03:10.444Z,0
2022-11-08T08:04:10.725Z,0
2022-11-08T08:05:11.065Z,4000
2022-11-08T08:06:10.644Z,3800
2022-11-08T08:07:11.008Z,3600
2022-11-08T08:08:10.250Z,3640
2022-11-08T08:09:10.495Z,3700
2022-11-08T08:10:10.936Z,3800
2022-11-08T08:11:11.041Z,3900
2022-11-08T08:12:10.146Z,4000
2022-11-08T08:13:10.283Z,4000
2022-11-08T08:14:11.270Z,4000
2022-11-08T08:15:10.751Z,3860
2022-11-08T08:16:10.993Z,3900
2022-11-08T08:17:11.123Z,0
2022-11-08T08:18:10.521Z,0
2022-11-08T08:19:11.104Z,0
2022-11-08T08:20:10.331Z,8000
2022-11-08T08:21:10.660Z,0
2022-11-08T08:22:10.552Z,0
2022-11-08T08:23:10.842Z,4000
2022-11-08T08:24:10.828Z,5000
2022-11-08T08:25:11.159Z,4000
2022-11-08T08:26:10.445Z,0
2022-11-08T08:27:10.828Z,0
2022-11-08T08:28:10.969Z,0
2022-11-08T08:29:10.395Z,0
2022-11-08T08:30:10.506Z,4000
2022-11-08T08:31:10.783Z,3000
2022-11-08T08:32:10.746Z,3850
2022-11-08T08:33:29.105Z,3920
2022-11-08T08:34:10.295Z,3960
2022-11-08T08:35:10.392Z,3900
2022-11-08T08:36:10.285Z,3882
2022-11-08T08:37:10.460Z,3900
2022-11-08T08:38:10.441Z,4000
2022-11-08T08:39:10.703Z,4200
2022-11-08T08:40:10.774Z,4500
2022-11-08T08:41:10.613Z,4700
2022-11-08T08:42:10.564Z,4900
2022-11-08T08:43:10.873Z,5000
2022-11-08T08:44:10.463Z,5100
2022-11-08T08:45:14.715Z,5300
2022-11-08T08:46:10.995Z,5500
2022-11-08T08:47:11.245Z,5680
2022-11-08T08:48:10.492Z,5600
2022-11-08T08:49:10.873Z,5400
2022-11-08T08:50:11.154Z,5200
2022-11-08T08:51:10.377Z,5000
2022-11-08T08:52:10.722Z,5000
2022-11-08T08:53:11.172Z,5200
2022-11-08T08:54:11.021Z,5400
2022-11-08T08:55:10.616Z,5500
2022-11-08T08:56:10.853Z,5591
2022-11-08T08:57:11.161Z,5500
2022-11-08T08:58:10.362Z,5300
2022-11-08T09:01:38.571Z,5000
2022-11-08T09:02:10.624Z,0
2022-11-08T09:03:11.158Z,4000
2022-11-08T09:04:11.237Z,3900
2022-11-08T09:05:10.610Z,3930
2022-11-08T09:06:10.716Z,4040
2022-11-08T09:07:10.805Z,4030
2022-11-08T09:08:15.806Z,3960
2022-11-08T09:09:11.240Z,3920
2022-11-08T09:10:10.094Z,3850
2022-11-08T09:11:10.376Z,3839
2022-11-08T09:12:11.911Z,3700
2022-11-08T09:13:10.628Z,3500
2022-11-08T09:14:10.473Z,3300
2022-11-08T09:15:10.933Z,3240
2022-11-08T09:16:11.210Z,3170
2022-11-08T09:17:10.412Z,3148
2022-11-08T09:18:10.811Z,3100
2022-11-08T09:19:10.943Z,3000
2022-11-08T09:20:11.016Z,2900
2022-11-08T09:21:10.077Z,2810
2022-11-08T09:22:11.129Z,2750
2022-11-08T09:23:10.265Z,2731
2022-11-08T09:24:10.116Z,2722.
2022-11-08T09:25:10.387Z,2680
2022-11-08T09:26:10.747Z,2600
2022-11-08T09:27:10.965Z,2500
2022-11-08T09:28:11.097Z,2410
2022-11-08T09:29:11.006Z,2330
2022-11-08T09:30:11.243Z,2280
2022-11-08T09:31:10.453Z,2250
2022-11-08T09:32:10.497Z,2210
2022-11-08T09:33:10.545Z,2170
2022-11-08T09:34:24.252Z,2140
2022-11-08T09:35:10.485Z,2117
2022-11-08T09:36:29.684Z,2117
2022-11-08T09:37:10.571Z,2140
2022-11-08T09:38:10.599Z,2190
2022-11-08T09:39:10.526Z,2250
2022-11-08T09:40:10.902Z,2330
2022-11-08T09:41:10.909Z,2420
2022-11-08T09:42:10.820Z,2500
2022-11-08T09:43:10.873Z,2600
2022-11-08T09:44:29.200Z,2800
2022-11-08T09:45:10.342Z,3000
2022-11-08T09:46:10.500Z,3200
2022-11-08T09:47:10.624Z,3400
2022-11-08T09:48:32.775Z,3700
2022-11-08T09:49:10.760Z,4000
2022-11-08T09:50:10.847Z,4000
2022-11-08T09:51:11.309Z,4000
2022-11-08T09:52:32.961Z,5000
2022-11-08T09:53:10.468Z,5000
2022-11-08T09:54:10.164Z,6000
2022-11-08T09:55:11.131Z,6600
2022-11-08T09:56:10.390Z,6810
2022-11-08T09:57:10.832Z,6800
2022-11-08T09:58:10.912Z,6600
2022-11-08T09:59:10.088Z,6300
2022-11-08T10:00:11.463Z,0
2022-11-08T10:01:10.244Z,0
2022-11-08T10:02:10.421Z,10000
2022-11-08T10:03:11.350Z,0
2022-11-08T10:04:11.084Z,0
2022-11-08T10:05:10.522Z,0
2022-11-08T10:06:11.990Z,0
2022-11-08T10:07:11.142Z,0
2022-11-08T10:08:11.122Z,4000
2022-11-08T10:09:09.126Z,4000
2022-11-08T10:10:09.720Z,0
2022-11-08T10:11:10.695Z,0
2022-11-08T10:12:10.830Z,0
2022-11-08T10:13:10.840Z,5000
2022-11-08T10:14:10.595Z,4000
2022-11-08T10:15:11.486Z,4380
2022-11-08T10:16:10.664Z,4386
2022-11-08T10:17:10.961Z,4413
2022-11-08T10:18:10.233Z,4438
2022-11-08T10:19:10.685Z,4460
2022-11-08T10:20:11.273Z,4502
2022-11-08T10:21:10.859Z,4450
2022-11-08T10:22:10.407Z,4420
2022-11-08T10:23:10.675Z,4420
2022-11-08T10:24:10.348Z,4300
2022-11-08T10:25:10.807Z,4301
2022-11-08T10:26:11.010Z,4301
2022-11-08T10:27:10.926Z,4300
2022-11-08T10:28:10.963Z,4440
2022-11-08T10:29:09.997Z,4500
2022-11-08T10:30:10.655Z,4700
2022-11-08T10:31:11.046Z,4900
2022-11-08T10:32:10.322Z,5200
2022-11-08T10:33:10.792Z,5000
2022-11-08T10:34:10.553Z,0
2022-11-08T10:35:10.993Z,0
2022-11-08T10:36:10.529Z,10000
2022-11-08T10:37:10.775Z,0
2022-11-08T10:38:11.004Z,6000
2022-11-08T10:39:10.415Z,6500
2022-11-08T10:40:11.092Z,0
2022-11-08T10:41:10.489Z,0
2022-11-08T10:42:11.010Z,5900
2022-11-08T10:43:10.487Z,5900
2022-11-08T10:44:10.810Z,6100
2022-11-08T10:45:11.409Z,6300
2022-11-08T10:46:10.692Z,6500
2022-11-08T10:47:11.254Z,6700
2022-11-08T10:48:10.943Z,6800
2022-11-08T10:49:10.975Z,7000
2022-11-08T10:50:11.281Z,7000
2022-11-08T10:51:11.083Z,0
2022-11-08T10:52:10.417Z,0
2022-11-08T10:53:10.708Z,13000
2022-11-08T10:54:10.842Z,12000
2022-11-08T10:55:11.237Z,12000
2022-11-08T10:56:10.558Z,11000
2022-11-08T10:57:11.247Z,11300
2022-11-08T10:58:10.710Z,10000
2022-11-08T10:59:10.749Z,9000
2022-11-08T11:00:11.446Z,8000
2022-11-08T11:01:11.536Z,8000
2022-11-08T11:02:10.394Z,7000
2022-11-08T11:03:11.120Z,7000
2022-11-08T11:04:10.479Z,7000
2022-11-08T11:05:11.311Z,6900
2022-11-08T11:06:10.744Z,6900
2022-11-08T11:07:10.839Z,7000
2022-11-08T11:08:10.516Z,7600
2022-11-08T11:09:10.680Z,7500
2022-11-08T11:10:12.221Z,7000
2022-11-08T11:11:10.720Z,7000
2022-11-08T11:12:11.142Z,7000
2022-11-08T11:13:10.520Z,6000
2022-11-08T11:14:13.109Z,6250
2022-11-08T11:15:10.217Z,6270
2022-11-08T11:16:10.338Z,6400
2022-11-08T11:17:10.561Z,6000
2022-11-08T11:18:11.242Z,7000
2022-11-08T11:19:10.901Z,7000
2022-11-08T11:20:11.066Z,8000
2022-11-08T11:21:10.189Z,8000
2022-11-08T11:22:10.789Z,9000
2022-11-08T11:23:11.221Z,10000
2022-11-08T11:24:10.686Z,10800
2022-11-08T11:25:10.609Z,10770
2022-11-08T11:26:10.836Z,10800
2022-11-08T11:27:11.234Z,10500
2022-11-08T11:28:10.397Z,10510
2022-11-08T11:29:10.465Z,10600
2022-11-08T11:30:11.881Z,10500
2022-11-08T11:31:10.696Z,10400
2022-11-08T11:32:11.244Z,10210
2022-11-08T11:33:11.088Z,10000
2022-11-08T11:34:11.124Z,10900
2022-11-08T11:35:10.917Z,11000
2022-11-08T11:36:13.665Z,11000
2022-11-08T11:37:10.083Z,11860
2022-11-08T11:38:11.010Z,11900
2022-11-08T11:39:11.150Z,12100
2022-11-08T11:40:10.498Z,12000
2022-11-08T11:41:11.261Z,12590
2022-11-08T11:42:31.223Z,12510
2022-11-08T11:43:10.625Z,12530
2022-11-08T11:44:11.066Z,12610
2022-11-08T11:45:10.756Z,12500
2022-11-08T11:46:10.936Z,12400
2022-11-08T11:47:11.122Z,12380
2022-11-08T11:48:10.521Z,12300
2022-11-08T11:49:10.369Z,12000
2022-11-08T11:50:10.753Z,11740
2022-11-08T11:51:11.064Z,11600
2022-11-08T11:52:10.341Z,11590
2022-11-08T11:53:10.715Z,11700
2022-11-08T11:54:11.042Z,12000
2022-11-08T11:55:10.337Z,12000
2022-11-08T11:56:10.704Z,13000
2022-11-08T11:57:10.933Z,13800
2022-11-08T11:58:10.625Z,13000
2022-11-08T11:59:11.227Z,13000
2022-11-08T12:00:10.873Z,12800
2022-11-08T12:01:14.187Z,12000
2022-11-08T12:02:10.963Z,12000
2022-11-08T12:03:10.448Z,11900
2022-11-08T12:04:10.654Z,11000
2022-11-08T12:05:10.951Z,11000
2022-11-08T12:06:11.014Z,10600
2022-11-08T12:07:11.360Z,10530
2022-11-08T12:08:10.796Z,10520
2022-11-08T12:09:10.979Z,10300
2022-11-08T12:10:11.277Z,10200
2022-11-08T12:11:10.576Z,9000
2022-11-08T12:12:10.844Z,9000
2022-11-08T12:13:11.096Z,9430
2022-11-08T12:14:11.261Z,9500
2022-11-08T12:15:10.907Z,9800
2022-11-08T12:16:11.266Z,9900
2022-11-08T12:17:10.651Z,9700
2022-11-08T12:18:11.117Z,9000
2022-11-08T12:19:11.234Z,9000
2022-11-08T12:20:10.601Z,8000
2022-11-08T12:21:10.697Z,8300
2022-11-08T12:22:10.962Z,8100
2022-11-08T12:23:11.049Z,7900
2022-11-08T12:24:11.274Z,7600
2022-11-08T12:25:10.699Z,7460
2022-11-08T12:26:11.290Z,7500
2022-11-08T12:27:10.815Z,7730
2022-11-08T12:28:10.894Z,7690
2022-11-08T12:29:10.486Z,7671
2022-11-08T12:30:10.952Z,7700
2022-11-08T12:31:11.515Z,7700
2022-11-08T12:32:10.864Z,7500
2022-11-08T12:33:10.313Z,7430
2022-11-08T12:34:10.625Z,7410
2022-11-08T12:35:11.000Z,7500
2022-11-08T12:36:10.352Z,7600
2022-11-08T12:37:10.443Z,7000
2022-11-08T12:38:11.094Z,8000
2022-11-08T12:39:11.136Z,9000
2022-11-08T12:40:10.787Z,9500
2022-11-08T12:41:11.266Z,9400
2022-11-08T12:42:10.693Z,9290
2022-11-08T12:43:11.715Z,9100
2022-11-08T12:44:11.267Z,8000
2022-11-08T12:45:10.920Z,8000
2022-11-08T12:46:10.331Z,7000
2022-11-08T12:47:10.779Z,7000
2022-11-08T12:48:10.669Z,7000
2022-11-08T12:49:10.628Z,6900
2022-11-08T12:50:11.042Z,6700
2022-11-08T12:51:10.433Z,6500
2022-11-08T12:52:10.811Z,6300
2022-11-08T12:53:11.264Z,6279
2022-11-08T12:54:10.489Z,6340
2022-11-08T12:55:10.851Z,6386
2022-11-08T12:56:11.173Z,6200
2022-11-08T12:57:10.793Z,5900
2022-11-08T12:58:11.237Z,5800
2022-11-08T12:59:11.156Z,5680
2022-11-08T13:00:11.390Z,5590
2022-11-08T13:01:11.052Z,5562
2022-11-08T13:02:10.567Z,5600
2022-11-08T13:03:11.382Z,5900
2022-11-08T13:04:10.907Z,6060
2022-11-08T13:05:10.336Z,6100
2022-11-08T13:06:10.964Z,6300
2022-11-08T13:07:10.727Z,6470
2022-11-08T13:08:11.272Z,6600
2022-11-08T13:09:11.564Z,6700
2022-11-08T13:10:12.693Z,6600
2022-11-08T13:11:11.119Z,6300
2022-11-08T13:12:10.300Z,6000
2022-11-08T13:13:10.717Z,5970
2022-11-08T13:14:10.994Z,5940
2022-11-08T13:15:10.577Z,6000
2022-11-08T13:16:10.968Z,6200
2022-11-08T13:17:10.422Z,6500
2022-11-08T13:18:10.890Z,6400
2022-11-08T13:19:11.388Z,6420
2022-11-08T13:20:10.866Z,6500
2022-11-08T13:21:10.960Z,6710
2022-11-08T13:22:10.337Z,6740
2022-11-08T13:23:11.272Z,6800
2022-11-08T13:24:42.418Z,6980
2022-11-08T13:25:10.800Z,6800
2022-11-08T13:26:11.269Z,6600
2022-11-08T13:27:10.805Z,6598.
2022-11-08T13:28:11.312Z,6580
2022-11-08T13:29:11.122Z,6591
2022-11-08T13:30:10.759Z,6580
2022-11-08T13:31:11.041Z,6700
2022-11-08T13:32:10.514Z,7000
2022-11-08T13:33:11.033Z,7200
2022-11-08T13:34:10.772Z,7300
2022-11-08T13:35:11.277Z,7400
2022-11-08T13:36:10.671Z,7600
2022-11-08T13:37:10.137Z,7700
2022-11-08T13:38:10.518Z,7900
2022-11-08T13:39:10.888Z,8170
2022-11-08T13:40:11.178Z,8100
2022-11-08T13:41:10.657Z,7800
2022-11-08T13:42:10.785Z,7600
2022-11-08T13:43:11.026Z,7000
2022-11-08T13:44:10.331Z,6000
2022-11-08T13:45:10.587Z,6700
2022-11-08T13:46:11.215Z,6500
2022-11-08T13:47:10.487Z,6510